Accueil
METAR-TAF:

METAR-TAF

Aéroports :

Chugiak, Alaska, États-Unis

latitude: 61-25N, longitude: 149-31W, altitude: 29 m

Observation

Le bulletin a été fait il y a 18 minutes, à 10:56 UTC
Vent 4 kt de direction variable
Température 4°C
Humidité 87%
Pression 981 hPa
Visibilité: 16.1 km
Ciel clair

METAR: PABV 111056Z AUTO VRB04KT 10SM CLR 04/02 A2897 RMK AO2 PK WND 04026/1001 RAE00 SLP817 P0000 T00390022 $

Heure: 02:14 (11:14 UTC)


TAF: absent

Observations et prévisions météorologiques de plus de 4000 aéroports (messages METAR et TAF).

Les stations disponibles sont représentées par des disques jaunes et rouges sur la carte.

Passer la souris dessus pour voir le nom de la station.

Cliquer dessus pour voir les observations et prévisions météorologiques.

Pour changer de carte: cliquez sur les boutons verts avec une croix noire pour zoomer, sur le bouton vert avec un tiret pour effectuer un zoom arrière, ou sur les flèches vertes pour les cartes adjacentes.


METAR-TAF: